Details for Norwegian Air Shuttle at LEMD




Go Back


Latest METAR
Local Time

LEMD 240730Z 36004KT 330V040 CAVOK 18/14 Q1016 NOSIG

24/05/2018, 09:52:04

Description
Results
Norwegian Air Shuttle Logo
Number of Pilots based at LEMD
0 Pilots Based here
Number of Norwegian Air Shuttle Flights Departed from LEMD
0 Flights Departed
Number of Norwegian Air Shuttle Flights Arrived at LEMD
0 Flights Arrived
Number of Norwegian Air Shuttle Schedules Departing from LEMD
1 Schedules
Number of Norwegian Air Shuttle Schedules Arriving at LEMD
0 Schedules
Number of Norwegian Air Shuttle Schedules Departing from LEMD availible today
1 Schedules Today
Number of Norwegian Air Shuttle Schedules Arriving at LEMD availible today
0 Schedules Today
Average Landing Rate at LEMD
-205 fpm
Norwegian Air Shuttle Average Landing Rate at LEMD
0 fpm
Total Fuel Purchased at LEMD by Norwegian Air Shuttle
0.00 kgs / 0.00 lbs

Pilots Based at LEMD


Pilot ID
Pilot Name
Pilot Rank
No. of Flights
No. of Flying Hours
There are no pilots assigned to this hub!   Will you be the first?
Content